KBIX/BIX METAR and TAF weather

Enter ICAO airport designator
Station Type Date Time Source
KBIX METAR 2018/10/22 16:56 UTC NOAA

KBIX 221656Z AUTO 05005KT 10SM CLR 21/14 A3018 RMK AO2 SLP223 T02110140


Station Type Date Time Source
KBIX Decoded METAR 2018/10/22 16:56 UTC NOAA

Keesler Air Force Base / Biloxi, MS, United States (KBIX) 30-25N 088-55W
Oct 22, 2018 - 12:56 PM EDT / 2018.10.22 1656 UTC
Wind: from the NE (050 degrees) at 6 MPH (5 KT):0
Visibility: 10 mile(s):0
Sky conditions: clear
Temperature: 70.0 F (21.1 C)
Dew Point: 57.2 F (14.0 C)
Relative Humidity: 63%
Pressure (altimeter): 30.18 in. Hg (1022 hPa)
ob: KBIX 221656Z AUTO 05005KT 10SM CLR 21/14 A3018 RMK AO2 SLP223 T02110140
cycle: 17

Station Type Date Time Source
KBIX TAF 2018/10/22 10:07 UTC NOAA

TAF KBIX 221000Z 2210/2316 06006KT 9999 SKC QNH3012INS
BECMG 2217/2218 06006KT 9999 SCT060 BKN200 QNH3019INS
BECMG 2302/2303 09009KT 9999 BKN060 BKN200 QNH3014INS TX24/2220Z TN09/2210Z


Example: see airport list